sensor_id;sensor_type;location;lat;lon;timestamp;pressure;altitude;pressure_sealevel;temperature;humidity
72465;BME280;60471;52.150;4.508;2023-04-07T00:00:22;101273.78;;;9.98;82.13
72465;BME280;60471;52.150;4.508;2023-04-07T00:02:48;101264.63;;;9.85;82.00
72465;BME280;60471;52.150;4.508;2023-04-07T00:05:15;101271.28;;;9.95;81.84
72465;BME280;60471;52.150;4.508;2023-04-07T00:07:41;101276.94;;;10.08;81.35
72465;BME280;60471;52.150;4.508;2023-04-07T00:10:08;101276.13;;;10.06;81.23
72465;BME280;60471;52.150;4.508;2023-04-07T00:12:34;101272.22;;;10.16;80.91
72465;BME280;60471;52.150;4.508;2023-04-07T00:15:01;101277.53;;;9.93;81.37
72465;BME280;60471;52.150;4.508;2023-04-07T00:17:27;101266.06;;;9.94;81.96
72465;BME280;60471;52.150;4.508;2023-04-07T00:19:53;101269.09;;;9.83;81.94
72465;BME280;60471;52.150;4.508;2023-04-07T00:22:20;101269.34;;;9.77;81.74
72465;BME280;60471;52.150;4.508;2023-04-07T00:24:47;101279.13;;;9.50;82.73
72465;BME280;60471;52.150;4.508;2023-04-07T00:27:13;101279.59;;;9.61;82.91
72465;BME280;60471;52.150;4.508;2023-04-07T00:29:39;101286.91;;;9.53;83.10
72465;BME280;60471;52.150;4.508;2023-04-07T00:32:05;101289.25;;;9.37;83.84
72465;BME280;60471;52.150;4.508;2023-04-07T00:34:32;101285.97;;;9.30;84.19
72465;BME280;60471;52.150;4.508;2023-04-07T00:36:58;101292.13;;;9.29;84.30
72465;BME280;60471;52.150;4.508;2023-04-07T00:39:24;101291.53;;;9.21;84.90
72465;BME280;60471;52.150;4.508;2023-04-07T00:41:52;101289.44;;;9.06;85.24
72465;BME280;60471;52.150;4.508;2023-04-07T00:44:18;101293.81;;;9.07;85.22
72465;BME280;60471;52.150;4.508;2023-04-07T00:46:46;101285.00;;;9.08;85.55
72465;BME280;60471;52.150;4.508;2023-04-07T00:49:12;101288.72;;;9.03;85.40
72465;BME280;60471;52.150;4.508;2023-04-07T00:51:38;101287.47;;;9.13;85.56
72465;BME280;60471;52.150;4.508;2023-04-07T00:54:05;101292.56;;;9.17;85.34
72465;BME280;60471;52.150;4.508;2023-04-07T00:56:31;101295.22;;;9.17;85.05
72465;BME280;60471;52.150;4.508;2023-04-07T00:58:57;101294.19;;;9.21;85.28
72465;BME280;60471;52.150;4.508;2023-04-07T01:01:27;101293.44;;;9.18;85.44
72465;BME280;60471;52.150;4.508;2023-04-07T01:04:04;101298.22;;;9.32;84.42
72465;BME280;60471;52.150;4.508;2023-04-07T01:06:39;101292.88;;;9.33;84.69
72465;BME280;60471;52.150;4.508;2023-04-07T01:09:22;101296.72;;;9.24;84.78
72465;BME280;60471;52.150;4.508;2023-04-07T01:12:09;101292.84;;;9.35;84.58
72465;BME280;60471;52.150;4.508;2023-04-07T01:14:54;101293.53;;;9.40;83.57
72465;BME280;60471;52.150;4.508;2023-04-07T01:17:26;101283.59;;;9.48;83.95
72465;BME280;60471;52.150;4.508;2023-04-07T01:20:02;101286.56;;;9.62;83.49
72465;BME280;60471;52.150;4.508;2023-04-07T01:22:42;101294.13;;;9.48;83.28
72465;BME280;60471;52.150;4.508;2023-04-07T01:28:43;101293.09;;;9.75;82.79
72465;BME280;60471;52.150;4.508;2023-04-07T01:31:24;101290.94;;;9.63;83.04
72465;BME280;60471;52.150;4.508;2023-04-07T01:33:54;101289.66;;;9.73;82.87
72465;BME280;60471;52.150;4.508;2023-04-07T01:36:22;101297.75;;;9.69;82.49
72465;BME280;60471;52.150;4.508;2023-04-07T01:38:53;101288.66;;;9.77;82.48
72465;BME280;60471;52.150;4.508;2023-04-07T01:41:22;101287.44;;;9.86;82.41
72465;BME280;60471;52.150;4.508;2023-04-07T01:43:51;101291.38;;;9.98;81.45
72465;BME280;60471;52.150;4.508;2023-04-07T01:46:19;101290.38;;;9.78;82.08
72465;BME280;60471;52.150;4.508;2023-04-07T01:48:47;101292.69;;;9.86;82.48
72465;BME280;60471;52.150;4.508;2023-04-07T01:51:15;101293.75;;;9.82;82.56
72465;BME280;60471;52.150;4.508;2023-04-07T01:53:45;101287.22;;;9.92;81.75
72465;BME280;60471;52.150;4.508;2023-04-07T01:56:12;101294.66;;;9.81;81.97
72465;BME280;60471;52.150;4.508;2023-04-07T01:58:39;101293.34;;;9.93;81.68
72465;BME280;60471;52.150;4.508;2023-04-07T02:01:05;101294.38;;;9.88;81.65
72465;BME280;60471;52.150;4.508;2023-04-07T02:03:55;101289.66;;;9.73;81.80
72465;BME280;60471;52.150;4.508;2023-04-07T02:06:34;101284.06;;;9.82;81.40
72465;BME280;60471;52.150;4.508;2023-04-07T02:09:09;101283.28;;;9.80;81.30
72465;BME280;60471;52.150;4.508;2023-04-07T02:11:38;101276.78;;;9.89;81.10
72465;BME280;60471;52.150;4.508;2023-04-07T02:14:08;101282.97;;;9.65;81.77
72465;BME280;60471;52.150;4.508;2023-04-07T02:16:36;101288.13;;;9.91;80.67
72465;BME280;60471;52.150;4.508;2023-04-07T02:19:04;101297.38;;;9.79;80.82
72465;BME280;60471;52.150;4.508;2023-04-07T02:21:32;101291.97;;;9.82;80.47
72465;BME280;60471;52.150;4.508;2023-04-07T02:24:01;101304.09;;;9.86;80.76
72465;BME280;60471;52.150;4.508;2023-04-07T02:26:32;101301.81;;;10.01;80.06
72465;BME280;60471;52.150;4.508;2023-04-07T02:29:04;101298.34;;;10.00;80.02
72465;BME280;60471;52.150;4.508;2023-04-07T02:31:31;101293.34;;;9.93;79.98
72465;BME280;60471;52.150;4.508;2023-04-07T02:33:57;101301.03;;;9.99;80.00
72465;BME280;60471;52.150;4.508;2023-04-07T02:36:23;101297.88;;;10.12;79.51
72465;BME280;60471;52.150;4.508;2023-04-07T02:38:49;101298.56;;;9.94;79.68
72465;BME280;60471;52.150;4.508;2023-04-07T02:41:16;101311.59;;;9.97;79.98
72465;BME280;60471;52.150;4.508;2023-04-07T02:43:42;101300.84;;;10.03;79.80
72465;BME280;60471;52.150;4.508;2023-04-07T02:46:08;101298.69;;;9.68;81.54
72465;BME280;60471;52.150;4.508;2023-04-07T02:48:34;101293.75;;;9.82;81.93
72465;BME280;60471;52.150;4.508;2023-04-07T02:51:01;101302.56;;;9.81;81.46
72465;BME280;60471;52.150;4.508;2023-04-07T02:53:27;101296.38;;;10.05;80.87
72465;BME280;60471;52.150;4.508;2023-04-07T02:55:53;101302.28;;;9.88;81.65
72465;BME280;60471;52.150;4.508;2023-04-07T02:58:19;101291.59;;;10.15;80.38
72465;BME280;60471;52.150;4.508;2023-04-07T03:00:47;101303.28;;;10.08;80.33
72465;BME280;60471;52.150;4.508;2023-04-07T03:03:14;101300.44;;;10.14;80.30
72465;BME280;60471;52.150;4.508;2023-04-07T03:05:40;101302.63;;;10.03;80.81
72465;BME280;60471;52.150;4.508;2023-04-07T03:08:06;101304.22;;;10.07;81.01
72465;BME280;60471;52.150;4.508;2023-04-07T03:10:33;101302.78;;;9.98;81.24
72465;BME280;60471;52.150;4.508;2023-04-07T03:12:59;101305.34;;;9.78;82.00
72465;BME280;60471;52.150;4.508;2023-04-07T03:15:25;101306.41;;;9.72;82.76
72465;BME280;60471;52.150;4.508;2023-04-07T03:17:51;101311.63;;;9.74;82.70
72465;BME280;60471;52.150;4.508;2023-04-07T03:20:17;101315.50;;;9.64;83.55
72465;BME280;60471;52.150;4.508;2023-04-07T03:22:44;101313.66;;;9.66;83.59
72465;BME280;60471;52.150;4.508;2023-04-07T03:25:12;101317.41;;;9.60;83.54
72465;BME280;60471;52.150;4.508;2023-04-07T03:27:38;101311.78;;;9.69;83.20
72465;BME280;60471;52.150;4.508;2023-04-07T03:30:05;101312.53;;;9.73;83.33
72465;BME280;60471;52.150;4.508;2023-04-07T03:32:32;101324.97;;;9.69;82.77
72465;BME280;60471;52.150;4.508;2023-04-07T03:34:58;101307.72;;;9.84;82.55
72465;BME280;60471;52.150;4.508;2023-04-07T03:37:24;101307.56;;;9.88;82.47
72465;BME280;60471;52.150;4.508;2023-04-07T03:39:51;101307.97;;;10.01;81.30
72465;BME280;60471;52.150;4.508;2023-04-07T03:42:17;101313.78;;;9.86;80.75
72465;BME280;60471;52.150;4.508;2023-04-07T03:44:43;101309.63;;;9.80;81.16
72465;BME280;60471;52.150;4.508;2023-04-07T03:47:09;101308.19;;;9.72;81.61
72465;BME280;60471;52.150;4.508;2023-04-07T03:49:36;101313.09;;;9.57;81.43
72465;BME280;60471;52.150;4.508;2023-04-07T03:52:03;101312.34;;;9.54;81.95
72465;BME280;60471;52.150;4.508;2023-04-07T03:54:30;101317.44;;;9.58;81.71
72465;BME280;60471;52.150;4.508;2023-04-07T03:56:56;101317.19;;;9.66;81.13
72465;BME280;60471;52.150;4.508;2023-04-07T03:59:22;101317.91;;;9.70;80.17
72465;BME280;60471;52.150;4.508;2023-04-07T04:01:48;101313.97;;;9.81;80.07
72465;BME280;60471;52.150;4.508;2023-04-07T04:04:15;101316.03;;;9.97;79.42
72465;BME280;60471;52.150;4.508;2023-04-07T04:06:41;101321.69;;;9.86;79.54
72465;BME280;60471;52.150;4.508;2023-04-07T04:09:07;101320.75;;;9.88;79.38
72465;BME280;60471;52.150;4.508;2023-04-07T04:11:33;101318.06;;;9.90;79.56
72465;BME280;60471;52.150;4.508;2023-04-07T04:14:00;101321.75;;;10.08;78.43
72465;BME280;60471;52.150;4.508;2023-04-07T04:16:26;101320.34;;;9.99;78.93
72465;BME280;60471;52.150;4.508;2023-04-07T04:18:53;101325.72;;;9.96;79.02
72465;BME280;60471;52.150;4.508;2023-04-07T04:21:19;101322.28;;;9.94;79.50
72465;BME280;60471;52.150;4.508;2023-04-07T04:23:45;101326.34;;;10.03;78.71
72465;BME280;60471;52.150;4.508;2023-04-07T04:26:11;101329.91;;;9.78;79.97
72465;BME280;60471;52.150;4.508;2023-04-07T04:28:38;101333.41;;;9.79;80.56
72465;BME280;60471;52.150;4.508;2023-04-07T04:31:04;101330.13;;;9.96;79.50
72465;BME280;60471;52.150;4.508;2023-04-07T04:33:30;101334.78;;;9.89;79.54
72465;BME280;60471;52.150;4.508;2023-04-07T04:35:56;101336.31;;;9.95;79.50
72465;BME280;60471;52.150;4.508;2023-04-07T04:38:22;101332.88;;;9.93;79.17
72465;BME280;60471;52.150;4.508;2023-04-07T04:40:48;101358.06;;;9.76;79.96
72465;BME280;60471;52.150;4.508;2023-04-07T04:43:15;101344.16;;;9.73;80.08
72465;BME280;60471;52.150;4.508;2023-04-07T04:45:41;101337.44;;;9.87;79.72
72465;BME280;60471;52.150;4.508;2023-04-07T04:48:07;101343.09;;;10.02;78.84
72465;BME280;60471;52.150;4.508;2023-04-07T04:50:34;101340.91;;;9.90;78.43
72465;BME280;60471;52.150;4.508;2023-04-07T04:53:01;101352.31;;;9.90;78.71
72465;BME280;60471;52.150;4.508;2023-04-07T04:55:27;101357.34;;;9.73;79.03
72465;BME280;60471;52.150;4.508;2023-04-07T04:57:53;101354.81;;;9.70;78.89
72465;BME280;60471;52.150;4.508;2023-04-07T05:00:20;101355.78;;;9.67;78.08
72465;BME280;60471;52.150;4.508;2023-04-07T05:02:46;101363.91;;;9.61;77.67
72465;BME280;60471;52.150;4.508;2023-04-07T05:05:12;101365.03;;;9.54;77.17
72465;BME280;60471;52.150;4.508;2023-04-07T05:07:39;101360.34;;;9.62;76.85
72465;BME280;60471;52.150;4.508;2023-04-07T05:10:06;101367.00;;;9.72;76.96
72465;BME280;60471;52.150;4.508;2023-04-07T05:12:33;101367.38;;;9.86;76.38
72465;BME280;60471;52.150;4.508;2023-04-07T05:14:59;101369.25;;;9.83;76.84
72465;BME280;60471;52.150;4.508;2023-04-07T05:17:25;101370.91;;;9.85;76.63
72465;BME280;60471;52.150;4.508;2023-04-07T05:19:51;101368.03;;;9.68;76.47
72465;BME280;60471;52.150;4.508;2023-04-07T05:22:18;101369.72;;;9.71;76.55
72465;BME280;60471;52.150;4.508;2023-04-07T05:24:44;101369.22;;;9.59;77.15
72465;BME280;60471;52.150;4.508;2023-04-07T05:27:10;101374.44;;;9.61;77.19
72465;BME280;60471;52.150;4.508;2023-04-07T05:29:36;101369.72;;;9.94;75.82
72465;BME280;60471;52.150;4.508;2023-04-07T05:32:04;101372.69;;;9.85;75.63
72465;BME280;60471;52.150;4.508;2023-04-07T05:34:30;101380.47;;;9.90;75.62
72465;BME280;60471;52.150;4.508;2023-04-07T05:36:57;101369.91;;;10.13;74.64
72465;BME280;60471;52.150;4.508;2023-04-07T05:39:23;101370.03;;;10.10;74.94
72465;BME280;60471;52.150;4.508;2023-04-07T05:41:50;101369.91;;;10.13;74.60
72465;BME280;60471;52.150;4.508;2023-04-07T05:44:16;101379.75;;;10.08;74.58
72465;BME280;60471;52.150;4.508;2023-04-07T05:46:43;101378.44;;;9.96;74.84
72465;BME280;60471;52.150;4.508;2023-04-07T05:49:09;101377.50;;;9.97;74.66
72465;BME280;60471;52.150;4.508;2023-04-07T05:51:35;101373.53;;;10.10;74.29
72465;BME280;60471;52.150;4.508;2023-04-07T05:54:01;101381.53;;;10.07;74.17
72465;BME280;60471;52.150;4.508;2023-04-07T05:56:30;101382.84;;;10.19;73.82
72465;BME280;60471;52.150;4.508;2023-04-07T05:58:56;101382.47;;;10.30;73.32
72465;BME280;60471;52.150;4.508;2023-04-07T06:01:23;101383.75;;;10.43;73.18
72465;BME280;60471;52.150;4.508;2023-04-07T06:03:50;101392.41;;;10.23;73.99
72465;BME280;60471;52.150;4.508;2023-04-07T06:06:16;101387.75;;;10.30;74.95
72465;BME280;60471;52.150;4.508;2023-04-07T06:08:42;101403.47;;;10.09;75.04
72465;BME280;60471;52.150;4.508;2023-04-07T06:11:09;101401.56;;;10.13;75.30
72465;BME280;60471;52.150;4.508;2023-04-07T06:13:35;101406.31;;;10.03;76.24
72465;BME280;60471;52.150;4.508;2023-04-07T06:16:01;101408.28;;;9.97;76.82
72465;BME280;60471;52.150;4.508;2023-04-07T06:18:27;101415.31;;;10.21;76.00
72465;BME280;60471;52.150;4.508;2023-04-07T06:20:54;101403.66;;;10.28;75.82
72465;BME280;60471;52.150;4.508;2023-04-07T06:23:20;101408.03;;;10.51;75.41
72465;BME280;60471;52.150;4.508;2023-04-07T06:25:46;101403.53;;;10.55;74.64
72465;BME280;60471;52.150;4.508;2023-04-07T06:28:16;101414.56;;;10.42;74.96
72465;BME280;60471;52.150;4.508;2023-04-07T06:30:43;101420.56;;;9.98;76.94
72465;BME280;60471;52.150;4.508;2023-04-07T06:33:09;101420.13;;;10.10;76.27
72465;BME280;60471;52.150;4.508;2023-04-07T06:35:38;101427.81;;;10.16;74.67
72465;BME280;60471;52.150;4.508;2023-04-07T06:38:04;101428.94;;;10.09;73.59
72465;BME280;60471;52.150;4.508;2023-04-07T06:40:31;101430.69;;;10.10;73.71
72465;BME280;60471;52.150;4.508;2023-04-07T06:42:57;101428.47;;;10.46;72.59
72465;BME280;60471;52.150;4.508;2023-04-07T06:45:23;101439.78;;;10.26;72.98
72465;BME280;60471;52.150;4.508;2023-04-07T06:47:49;101433.41;;;10.55;71.13
72465;BME280;60471;52.150;4.508;2023-04-07T06:50:18;101434.78;;;10.65;69.86
72465;BME280;60471;52.150;4.508;2023-04-07T06:52:47;101439.03;;;10.23;71.13
72465;BME280;60471;52.150;4.508;2023-04-07T06:55:13;101436.84;;;10.09;72.31
72465;BME280;60471;52.150;4.508;2023-04-07T06:57:39;101449.47;;;10.26;71.81
72465;BME280;60471;52.150;4.508;2023-04-07T07:00:06;101443.31;;;10.49;70.74
72465;BME280;60471;52.150;4.508;2023-04-07T07:02:35;101449.25;;;10.55;70.21
72465;BME280;60471;52.150;4.508;2023-04-07T07:05:01;101449.66;;;10.44;70.86
72465;BME280;60471;52.150;4.508;2023-04-07T07:07:29;101446.53;;;10.57;70.24
72465;BME280;60471;52.150;4.508;2023-04-07T07:09:56;101445.81;;;10.53;70.42
72465;BME280;60471;52.150;4.508;2023-04-07T07:12:22;101446.72;;;10.76;69.86
72465;BME280;60471;52.150;4.508;2023-04-07T07:14:48;101448.19;;;10.59;70.69
72465;BME280;60471;52.150;4.508;2023-04-07T07:17:14;101449.91;;;10.60;70.76
72465;BME280;60471;52.150;4.508;2023-04-07T07:19:41;101456.69;;;10.67;70.76
72465;BME280;60471;52.150;4.508;2023-04-07T07:22:08;101457.50;;;10.46;71.50
72465;BME280;60471;52.150;4.508;2023-04-07T07:24:34;101465.22;;;10.27;73.33
72465;BME280;60471;52.150;4.508;2023-04-07T07:27:01;101466.94;;;10.28;73.71
72465;BME280;60471;52.150;4.508;2023-04-07T07:29:28;101466.59;;;10.61;73.33
72465;BME280;60471;52.150;4.508;2023-04-07T07:31:54;101472.53;;;10.44;72.20
72465;BME280;60471;52.150;4.508;2023-04-07T07:34:20;101470.16;;;10.83;70.53
72465;BME280;60471;52.150;4.508;2023-04-07T07:36:47;101469.94;;;11.11;69.11
72465;BME280;60471;52.150;4.508;2023-04-07T07:39:13;101471.88;;;10.84;69.58
72465;BME280;60471;52.150;4.508;2023-04-07T07:41:39;101474.59;;;11.04;67.76
72465;BME280;60471;52.150;4.508;2023-04-07T07:44:06;101475.56;;;11.24;67.21
72465;BME280;60471;52.150;4.508;2023-04-07T07:46:33;101482.94;;;10.94;67.65
72465;BME280;60471;52.150;4.508;2023-04-07T07:48:59;101482.16;;;11.14;66.83
72465;BME280;60471;52.150;4.508;2023-04-07T07:51:25;101486.44;;;11.38;65.84
72465;BME280;60471;52.150;4.508;2023-04-07T07:53:52;101479.13;;;10.79;68.51
72465;BME280;60471;52.150;4.508;2023-04-07T07:56:19;101491.44;;;11.24;67.09
72465;BME280;60471;52.150;4.508;2023-04-07T07:58:45;101488.72;;;11.47;66.25
72465;BME280;60471;52.150;4.508;2023-04-07T08:01:11;101485.78;;;11.11;67.23
72465;BME280;60471;52.150;4.508;2023-04-07T08:03:37;101490.34;;;11.29;67.29
72465;BME280;60471;52.150;4.508;2023-04-07T08:06:03;101497.84;;;11.60;66.25
72465;BME280;60471;52.150;4.508;2023-04-07T08:08:31;101492.53;;;11.62;66.16
72465;BME280;60471;52.150;4.508;2023-04-07T08:10:57;101500.09;;;11.70;65.60
72465;BME280;60471;52.150;4.508;2023-04-07T08:13:23;101491.75;;;11.80;65.02
72465;BME280;60471;52.150;4.508;2023-04-07T08:15:49;101501.13;;;11.45;66.46
72465;BME280;60471;52.150;4.508;2023-04-07T08:18:16;101503.50;;;11.73;65.04
72465;BME280;60471;52.150;4.508;2023-04-07T08:20:42;101512.91;;;11.58;65.52
72465;BME280;60471;52.150;4.508;2023-04-07T08:23:08;101502.19;;;11.41;66.00
72465;BME280;60471;52.150;4.508;2023-04-07T08:25:35;101510.97;;;11.42;66.27
72465;BME280;60471;52.150;4.508;2023-04-07T08:28:01;101522.75;;;11.11;67.34
72465;BME280;60471;52.150;4.508;2023-04-07T08:30:27;101520.25;;;11.52;66.92
72465;BME280;60471;52.150;4.508;2023-04-07T08:32:53;101513.69;;;11.40;66.66
72465;BME280;60471;52.150;4.508;2023-04-07T08:35:19;101518.25;;;11.57;67.16
72465;BME280;60471;52.150;4.508;2023-04-07T08:37:46;101520.63;;;11.21;67.57
72465;BME280;60471;52.150;4.508;2023-04-07T08:40:12;101521.59;;;11.18;67.94
72465;BME280;60471;52.150;4.508;2023-04-07T08:42:40;101522.31;;;11.66;66.37
72465;BME280;60471;52.150;4.508;2023-04-07T08:45:10;101516.75;;;11.94;65.09
72465;BME280;60471;52.150;4.508;2023-04-07T08:47:39;101519.00;;;11.39;66.86
72465;BME280;60471;52.150;4.508;2023-04-07T08:50:10;101533.56;;;11.49;66.45
72465;BME280;60471;52.150;4.508;2023-04-07T08:52:51;101523.19;;;11.66;65.87
72465;BME280;60471;52.150;4.508;2023-04-07T08:55:19;101533.69;;;11.68;65.30
72465;BME280;60471;52.150;4.508;2023-04-07T08:57:45;101538.97;;;11.68;65.89
72465;BME280;60471;52.150;4.508;2023-04-07T09:00:13;101533.19;;;11.58;66.22
72465;BME280;60471;52.150;4.508;2023-04-07T09:02:41;101534.75;;;12.06;64.69
72465;BME280;60471;52.150;4.508;2023-04-07T09:05:13;101539.69;;;11.71;65.67
72465;BME280;60471;52.150;4.508;2023-04-07T09:07:40;101534.94;;;12.01;64.39
72465;BME280;60471;52.150;4.508;2023-04-07T09:10:10;101535.63;;;12.06;63.78
72465;BME280;60471;52.150;4.508;2023-04-07T09:12:37;101539.69;;;12.54;63.25
72465;BME280;60471;52.150;4.508;2023-04-07T09:15:07;101537.38;;;12.46;62.31
72465;BME280;60471;52.150;4.508;2023-04-07T09:17:33;101540.69;;;12.52;62.84
72465;BME280;60471;52.150;4.508;2023-04-07T09:20:00;101535.41;;;12.31;63.02
72465;BME280;60471;52.150;4.508;2023-04-07T09:22:38;101548.31;;;11.76;64.14
72465;BME280;60471;52.150;4.508;2023-04-07T09:25:18;101546.91;;;11.89;63.83
72465;BME280;60471;52.150;4.508;2023-04-07T09:28:01;101552.69;;;12.19;63.88
72465;BME280;60471;52.150;4.508;2023-04-07T09:30:30;101545.03;;;11.70;65.44
72465;BME280;60471;52.150;4.508;2023-04-07T09:32:59;101549.09;;;12.00;65.06
72465;BME280;60471;52.150;4.508;2023-04-07T09:35:26;101548.00;;;12.06;64.33
72465;BME280;60471;52.150;4.508;2023-04-07T09:38:11;101547.75;;;12.51;64.06
72465;BME280;60471;52.150;4.508;2023-04-07T09:40:37;101550.97;;;12.58;63.37
72465;BME280;60471;52.150;4.508;2023-04-07T09:43:04;101542.84;;;12.62;63.02
72465;BME280;60471;52.150;4.508;2023-04-07T09:45:31;101539.13;;;13.24;61.42
72465;BME280;60471;52.150;4.508;2023-04-07T09:47:58;101552.88;;;13.12;61.44
72465;BME280;60471;52.150;4.508;2023-04-07T09:50:38;101553.97;;;12.89;61.84
72465;BME280;60471;52.150;4.508;2023-04-07T09:53:06;101552.28;;;12.68;62.41
72465;BME280;60471;52.150;4.508;2023-04-07T09:55:32;101553.22;;;12.67;63.02
72465;BME280;60471;52.150;4.508;2023-04-07T09:58:03;101568.63;;;12.38;64.58
72465;BME280;60471;52.150;4.508;2023-04-07T10:00:31;101563.66;;;12.51;64.10
72465;BME280;60471;52.150;4.508;2023-04-07T10:02:57;101565.31;;;12.33;65.10
72465;BME280;60471;52.150;4.508;2023-04-07T10:05:25;101556.63;;;12.50;64.30
72465;BME280;60471;52.150;4.508;2023-04-07T10:07:52;101570.28;;;12.99;64.18
72465;BME280;60471;52.150;4.508;2023-04-07T10:10:19;101566.72;;;13.00;63.26
72465;BME280;60471;52.150;4.508;2023-04-07T10:12:48;101569.56;;;12.37;64.89
72465;BME280;60471;52.150;4.508;2023-04-07T10:15:16;101580.72;;;12.24;65.35
72465;BME280;60471;52.150;4.508;2023-04-07T10:17:45;101570.25;;;12.00;65.95
72465;BME280;60471;52.150;4.508;2023-04-07T10:20:16;101569.47;;;12.39;65.00
72465;BME280;60471;52.150;4.508;2023-04-07T10:22:47;101570.34;;;12.39;64.71
72465;BME280;60471;52.150;4.508;2023-04-07T10:25:18;101581.47;;;12.27;64.44
72465;BME280;60471;52.150;4.508;2023-04-07T10:27:50;101574.84;;;12.17;64.98
72465;BME280;60471;52.150;4.508;2023-04-07T10:30:25;101580.56;;;12.47;64.25
72465;BME280;60471;52.150;4.508;2023-04-07T10:32:54;101580.94;;;12.19;65.49
72465;BME280;60471;52.150;4.508;2023-04-07T10:35:22;101585.06;;;12.04;65.27
72465;BME280;60471;52.150;4.508;2023-04-07T10:40:34;101590.44;;;11.81;66.30
72465;BME280;60471;52.150;4.508;2023-04-07T10:43:00;101591.41;;;11.56;67.18
72465;BME280;60471;52.150;4.508;2023-04-07T10:48:13;101594.00;;;12.02;65.73
72465;BME280;60471;52.150;4.508;2023-04-07T10:50:40;101595.84;;;12.00;66.24
72465;BME280;60471;52.150;4.508;2023-04-07T10:53:14;101585.88;;;12.06;66.16
72465;BME280;60471;52.150;4.508;2023-04-07T10:55:44;101594.91;;;12.01;66.74
72465;BME280;60471;52.150;4.508;2023-04-07T11:03:58;101601.34;;;11.95;66.09
72465;BME280;60471;52.150;4.508;2023-04-07T11:06:23;101602.00;;;11.56;68.03
72465;BME280;60471;52.150;4.508;2023-04-07T11:08:51;101606.03;;;12.09;66.77
72465;BME280;60471;52.150;4.508;2023-04-07T11:11:38;101603.44;;;11.87;66.27
72465;BME280;60471;52.150;4.508;2023-04-07T11:14:06;101610.13;;;11.74;67.34
72465;BME280;60471;52.150;4.508;2023-04-07T11:16:41;101609.06;;;11.78;66.90
72465;BME280;60471;52.150;4.508;2023-04-07T11:19:08;101613.78;;;12.13;65.43
72465;BME280;60471;52.150;4.508;2023-04-07T11:21:35;101613.78;;;12.13;65.65
72465;BME280;60471;52.150;4.508;2023-04-07T11:24:01;101609.28;;;11.95;64.68
72465;BME280;60471;52.150;4.508;2023-04-07T11:26:28;101615.25;;;11.55;67.08
72465;BME280;60471;52.150;4.508;2023-04-07T11:28:55;101620.59;;;11.31;67.91
72465;BME280;60471;52.150;4.508;2023-04-07T11:31:25;101621.81;;;11.90;66.01
72465;BME280;60471;52.150;4.508;2023-04-07T11:34:01;101619.97;;;12.55;63.87
72465;BME280;60471;52.150;4.508;2023-04-07T11:36:30;101620.94;;;12.32;65.40
72465;BME280;60471;52.150;4.508;2023-04-07T11:38:59;101618.31;;;12.91;62.72
72465;BME280;60471;52.150;4.508;2023-04-07T11:41:28;101614.66;;;13.14;61.61
72465;BME280;60471;52.150;4.508;2023-04-07T11:44:09;101621.91;;;13.29;61.31
72465;BME280;60471;52.150;4.508;2023-04-07T11:46:51;101620.00;;;12.94;63.72
72465;BME280;60471;52.150;4.508;2023-04-07T11:49:22;101630.81;;;12.28;64.71
72465;BME280;60471;52.150;4.508;2023-04-07T11:51:57;101630.50;;;12.95;62.85
72465;BME280;60471;52.150;4.508;2023-04-07T11:54:26;101628.22;;;12.67;62.80
72465;BME280;60471;52.150;4.508;2023-04-07T11:56:52;101628.28;;;13.25;61.15
72465;BME280;60471;52.150;4.508;2023-04-07T11:59:24;101634.44;;;12.87;61.65
72465;BME280;60471;52.150;4.508;2023-04-07T12:01:51;101639.50;;;12.91;61.56
72465;BME280;60471;52.150;4.508;2023-04-07T12:04:18;101632.88;;;13.41;59.55
72465;BME280;60471;52.150;4.508;2023-04-07T12:06:47;101642.16;;;13.30;59.39
72465;BME280;60471;52.150;4.508;2023-04-07T12:09:32;101636.59;;;12.97;60.29
72465;BME280;60471;52.150;4.508;2023-04-07T12:12:04;101645.31;;;12.60;61.98
72465;BME280;60471;52.150;4.508;2023-04-07T12:14:32;101639.88;;;12.43;62.40
72465;BME280;60471;52.150;4.508;2023-04-07T12:16:59;101647.28;;;12.35;63.05
72465;BME280;60471;52.150;4.508;2023-04-07T12:19:29;101643.59;;;11.97;64.50
72465;BME280;60471;52.150;4.508;2023-04-07T12:22:00;101645.03;;;12.46;63.54
72465;BME280;60471;52.150;4.508;2023-04-07T12:24:26;101644.69;;;13.13;60.85
72465;BME280;60471;52.150;4.508;2023-04-07T12:26:53;101651.66;;;12.76;61.85
72465;BME280;60471;52.150;4.508;2023-04-07T12:29:19;101657.31;;;12.48;63.55
72465;BME280;60471;52.150;4.508;2023-04-07T12:31:46;101655.72;;;13.24;60.73
72465;BME280;60471;52.150;4.508;2023-04-07T12:34:12;101649.84;;;13.37;60.55
72465;BME280;60471;52.150;4.508;2023-04-07T12:36:38;101658.59;;;13.57;58.98
72465;BME280;60471;52.150;4.508;2023-04-07T12:39:04;101662.88;;;13.22;60.33
72465;BME280;60471;52.150;4.508;2023-04-07T12:41:31;101661.94;;;13.80;58.93
72465;BME280;60471;52.150;4.508;2023-04-07T12:43:57;101661.28;;;13.93;58.16
72465;BME280;60471;52.150;4.508;2023-04-07T12:46:23;101667.97;;;13.64;58.92
72465;BME280;60471;52.150;4.508;2023-04-07T12:48:49;101657.22;;;13.10;60.24
72465;BME280;60471;52.150;4.508;2023-04-07T12:51:16;101658.78;;;13.72;58.57
72465;BME280;60471;52.150;4.508;2023-04-07T12:53:42;101661.41;;;13.36;59.68
72465;BME280;60471;52.150;4.508;2023-04-07T12:56:09;101673.78;;;13.54;59.17
72465;BME280;60471;52.150;4.508;2023-04-07T12:58:35;101665.63;;;12.60;61.55
72465;BME280;60471;52.150;4.508;2023-04-07T13:01:01;101670.56;;;12.88;61.81
72465;BME280;60471;52.150;4.508;2023-04-07T13:03:28;101668.94;;;12.65;62.19
72465;BME280;60471;52.150;4.508;2023-04-07T13:05:54;101669.19;;;12.59;61.96
72465;BME280;60471;52.150;4.508;2023-04-07T13:08:20;101669.00;;;12.43;63.43
72465;BME280;60471;52.150;4.508;2023-04-07T13:10:47;101668.91;;;11.80;65.64
72465;BME280;60471;52.150;4.508;2023-04-07T13:13:13;101684.72;;;11.58;67.05